• Join FlightAware (Why Join?)
  • Login
  • US Flag 
04:55AM EDT


 

Airport Tracker/Info


-or-


 

Live Flight TrackerFlight Track Log ✈ AMF1026 ✈ 17-Jun-2013 ✈ KALB - KCVG

Flight Track Log - Related Links

Times and Time Zones

All times are in EDT time to prevent confusion due to time zone crossing. See the AMF1026 flight status page for this flight to view local times or setup timezone preferences in your user account.

Time Position Orientation Groundspeed Altitude Reporting Facility
EDT Latitude Longitude Course Direction KTS MPH feet Rate Location/Type
09:04PM 42.7339 -73.8081 179° South 133 153 900  Level Boston Center
09:05PM 42.7214 -73.8078 179° South 140 161 1,400 1,620 Climbing Boston Center
09:06PM 42.7083 -73.8500 247° West 162 186 3,100 1,440 Climbing Boston Center
09:07PM 42.7264 -73.9211 289° West 157 181 5,400 1,440 Climbing Boston Center
09:08PM 42.7233 -73.9775 266° West 145 167 7,100 1,500 Climbing Boston Center
09:09PM 42.6958 -74.0250 232° Southwest 257 296 8,400 1,200 Climbing Boston Center
09:10PM 42.6700 -74.0750 235° Southwest 212 244 9,600 1,140 Climbing Boston Center
09:11PM 42.6567 -74.1311 252° West 152 175 10,700 1,020 Climbing Boston Center
09:12PM 42.6497 -74.1819 259° West 152 175 11,700 1,080 Climbing Boston Center
09:13PM 42.6361 -74.2464 254° West 163 188 12,900 900 Climbing Boston Center
09:14PM 42.6269 -74.2997 257° West 163 188 13,600 600 Climbing Boston Center
09:15PM 42.6217 -74.3672 264° West 163 188 14,100 180 Climbing Boston Center
09:16PM 42.6097 -74.4572 260° West 189 217 14,100  Level Boston Center
09:17PM 42.6000 -74.5331 260° West 205 236 14,100 -60 Level Boston Center
09:18PM 42.5881 -74.6144 259° West 222 255 14,000 -60 Descending Boston Center
09:19PM 42.5742 -74.6900 256° West 222 255 14,000  Level Boston Center
09:20PM 42.5597 -74.7742 257° West 222 255 14,000  Level Boston Center
09:21PM 42.5500 -74.8414 259° West 222 255 14,000  Level Boston Center
09:22PM 42.5314 -74.9364 255° West 222 255 14,000  Level Boston Center
09:23PM 42.5172 -75.0147 256° West 222 255 14,000  Level Boston Center
09:24PM 42.5028 -75.0931 256° West 222 255 14,000  Level Boston Center
09:25PM 42.4864 -75.1683 243° Southwest 222 255 14,000  Level Boston Center
09:26PM 42.4710 -75.1777 243° Southwest  Level FlightAware Approximate
09:28PM 42.4336 -75.3219 245° Southwest 222 255 14,000  Level New York Center
09:29PM 42.4097 -75.3989 247° West 228 262 14,000  Level New York Center
09:30PM 42.3839 -75.4728 245° Southwest 228 262 14,000  Level New York Center
09:32PM 42.3286 -75.6282 245° Southwest  Level FlightAware Approximate
09:32PM 42.3322 -75.6178 245° Southwest 228 262 14,000  Level New York Center
09:33PM 42.3083 -75.6944 247° West 228 262 14,000  Level New York Center
09:34PM 42.2822 -75.7708 245° Southwest 228 262 14,000  Level New York Center
09:35PM 42.2583 -75.8475 247° West 228 262 14,000  Level New York Center
09:36PM 42.2322 -75.9211 244° Southwest 228 262 14,000  Level New York Center
09:37PM 42.2081 -75.9978 247° West 228 262 14,000  Level New York Center
09:38PM 42.1819 -76.0711 244° Southwest 228 262 14,000  Level New York Center
09:39PM 42.1556 -76.1472 245° Southwest 228 262 14,000  Level New York Center
09:40PM 42.1317 -76.2181 246° West 228 262 14,000  Level New York Center
09:41PM 42.1031 -76.2939 243° Southwest 228 262 14,000  Level New York Center
09:42PM 42.0767 -76.3672 244° Southwest 228 262 14,000  Level New York Center
09:43PM 42.0503 -76.4406 244° Southwest 228 262 14,000  Level New York Center
09:44PM 42.0239 -76.5136 244° Southwest 228 262 14,000  Level New York Center
09:45PM 41.9975 -76.5867 244° Southwest 228 262 14,000  Level New York Center
09:46PM 41.9731 -76.6625 247° West 228 262 14,000  Level New York Center
09:47PM 41.9464 -76.7356 244° Southwest 228 262 14,000  Level New York Center
09:48PM 41.9197 -76.8083 244° Southwest 228 262 14,000  Level New York Center
09:49PM 41.8931 -76.8839 245° Southwest 228 262 14,000  Level New York Center
09:49PM 41.8792 -76.9378 251° West 231 266 14,000 -120 Level Cleveland Center
09:50PM 41.8544 -77.0144 247° West 231 266 13,900 -60 Descending Cleveland Center
09:51PM 41.8275 -77.0886 244° Southwest 231 266 13,900  Level Cleveland Center
09:52PM 41.8028 -77.1650 247° West 231 266 14,000  Climbing Cleveland Center
09:53PM 41.7800 -77.2414 248° West 231 266 13,900  Descending Cleveland Center
09:54PM 41.7531 -77.3181 245° Southwest 231 266 14,000  Climbing Cleveland Center
09:55PM 41.7281 -77.3917 246° West 226 260 14,000  Level Cleveland Center
09:56PM 41.7008 -77.4681 245° Southwest 226 260 14,000  Level Cleveland Center
09:57PM 41.6697 -77.5447 242° Southwest 226 260 14,000  Level Cleveland Center
09:58PM 41.6464 -77.6153 246° West 226 260 14,000 -60 Level Cleveland Center
09:59PM 41.6150 -77.6944 242° Southwest 221 254 13,900  Descending Cleveland Center
10:00PM 41.5897 -77.7678 245° Southwest 221 254 14,000  Climbing Cleveland Center
10:01PM 41.5625 -77.8411 244° Southwest 221 254 14,000  Level Cleveland Center
10:02PM 41.5372 -77.9172 246° West 221 254 14,000  Level Cleveland Center
10:03PM 41.5139 -77.9931 248° West 221 254 14,000 -60 Level Cleveland Center
10:04PM 41.4925 -78.0658 249° West 226 260 13,900  Descending Cleveland Center
10:05PM 41.4711 -78.1417 249° West 226 260 14,000  Climbing Cleveland Center
10:06PM 41.4478 -78.2200 248° West 226 260 14,000  Level Cleveland Center
10:07PM 41.4244 -78.2986 248° West 226 260 14,000  Level Cleveland Center
10:08PM 41.4008 -78.3769 248° West 233 268 14,000 -60 Level Cleveland Center
10:09PM 41.3775 -78.4525 248° West 233 268 13,900  Descending Cleveland Center
10:10PM 41.3558 -78.5333 250° West 233 268 14,000  Climbing Cleveland Center
10:11PM 41.3344 -78.6114 250° West 233 268 14,000  Level Cleveland Center
10:12PM 41.3106 -78.6894 248° West 233 268 14,000  Level Cleveland Center
10:13PM 41.2869 -78.7675 248° West 233 268 14,000  Level Cleveland Center
10:14PM 41.2653 -78.8456 250° West 233 268 14,000  Level Cleveland Center
10:15PM 41.2456 -78.9233 251° West 233 268 14,000  Level Cleveland Center
10:16PM 41.2175 -79.0014 244° Southwest 227 261 14,000  Level Cleveland Center
10:17PM 41.1933 -79.0792 248° West 227 261 14,000  Level Cleveland Center
10:18PM 41.1694 -79.1514 246° West 227 261 14,000  Level Cleveland Center
10:19PM 41.1453 -79.2292 248° West 227 261 14,000  Level Cleveland Center
10:20PM 41.1253 -79.3014 250° West 227 261 14,000  Level Cleveland Center
10:21PM 41.0989 -79.3736 244° Southwest 232 267 14,000 -60 Level Cleveland Center
10:22PM 41.0747 -79.4456 246° West 232 267 13,900 -60 Descending Cleveland Center
10:23PM 41.0483 -79.5203 245° Southwest 227 261 13,900  Level Cleveland Center
10:24PM 41.0219 -79.5950 245° Southwest 227 261 14,000  Climbing Cleveland Center
10:25PM 40.9994 -79.6669 248° West 222 255 14,000  Level Cleveland Center
10:26PM 40.9731 -79.7417 245° Southwest 222 255 14,000  Level Cleveland Center
10:27PM 40.9464 -79.8161 245° Southwest 222 255 14,000  Level Cleveland Center
10:28PM 40.9239 -79.8906 248° West 222 255 14,000  Level Cleveland Center
10:29PM 40.8972 -79.9678 245° Southwest 227 261 14,000  Level Cleveland Center
10:30PM 40.8725 -80.0422 246° West 227 261 14,000  Level Cleveland Center
10:31PM 40.8481 -80.1247 249° West 222 255 14,000  Level Cleveland Center
10:32PM 40.8253 -80.1933 246° West 227 261 14,000  Level Cleveland Center
10:33PM 40.7942 -80.2594 238° Southwest 227 261 14,000  Level Cleveland Center
10:34PM 40.7589 -80.3281 236° Southwest 227 261 14,000  Level Cleveland Center
10:35PM 40.7194 -80.4050 236° Southwest 232 267 14,000  Level Cleveland Center
10:36PM 40.6842 -80.4736 236° Southwest 232 267 14,000  Level Cleveland Center
10:37PM 40.6467 -80.5419 234° Southwest 232 267 14,000  Level Cleveland Center
10:38PM 40.6133 -80.6106 237° Southwest 232 267 14,000  Level Cleveland Center
10:39PM 40.5819 -80.6622 231° Southwest 221 254 14,000  Level Cleveland Center
10:40PM 40.5464 -80.7333 237° Southwest 221 254 14,000  Level Cleveland Center
10:41PM 40.5131 -80.8017 237° Southwest 221 254 14,000  Level Cleveland Center
10:42PM 40.4794 -80.8725 238° Southwest 221 254 14,000  Level Cleveland Center
10:43PM 40.4461 -80.9378 236° Southwest 226 260 14,000  Level Cleveland Center
10:44PM 40.4103 -81.0083 236° Southwest 226 260 14,000  Level Cleveland Center
10:45PM 40.3747 -81.0764 236° Southwest 231 266 14,000  Level Cleveland Center
10:46PM 40.3406 -81.1378 234° Southwest 229 264 14,000  Level Indianapolis Center
10:47PM 40.3039 -81.2083 236° Southwest 230 265 14,000  Level Indianapolis Center
10:48PM 40.2672 -81.2775 235° Southwest 230 265 14,000  Level Indianapolis Center
10:49PM 40.2300 -81.3489 236° Southwest 232 267 14,000  Level Indianapolis Center
10:50PM 40.1931 -81.4175 235° Southwest 231 266 14,000  Level Indianapolis Center
10:51PM 40.1558 -81.4892 236° Southwest 233 268 14,000  Level Indianapolis Center
10:52PM 40.1186 -81.5594 235° Southwest 233 268 14,000  Level Indianapolis Center
10:53PM 40.0825 -81.6317 237° Southwest 235 270 14,000  Level Indianapolis Center
10:54PM 40.0386 -81.7114 234° Southwest 231 266 14,000  Level Indianapolis Center
10:55PM 40.0033 -81.7861 238° Southwest 234 269 14,000  Level Indianapolis Center
10:56PM 39.9733 -81.8644 243° Southwest 238 274 14,000  Level Indianapolis Center
10:57PM 39.9478 -81.9428 247° West 235 270 14,000  Level Indianapolis Center
10:58PM 39.9247 -82.0222 249° West 233 268 14,000  Level Indianapolis Center
10:59PM 39.9008 -82.1019 249° West 234 269 14,000  Level Indianapolis Center
11:00PM 39.8769 -82.1822 249° West 235 270 14,000  Level Indianapolis Center
11:01PM 39.8517 -82.2608 247° West 234 269 14,000  Level Indianapolis Center
11:02PM 39.8258 -82.3417 247° West 238 274 14,000  Level Indianapolis Center
11:03PM 39.8000 -82.4214 247° West 237 273 14,000  Level Indianapolis Center
11:04PM 39.7764 -82.5006 249° West 235 270 14,000  Level Indianapolis Center
11:05PM 39.7511 -82.5814 248° West 237 273 14,000  Level Indianapolis Center
11:06PM 39.7242 -82.6625 247° West 240 276 14,000  Level Indianapolis Center
11:07PM 39.6978 -82.7431 247° West 240 276 14,000  Level Indianapolis Center
11:08PM 39.6708 -82.8239 247° West 241 277 14,000  Level Indianapolis Center
11:09PM 39.6422 -82.9031 245° Southwest 240 276 14,000  Level Indianapolis Center
11:10PM 39.6119 -82.9828 244° Southwest 243 280 14,000  Level Indianapolis Center
11:11PM 39.5817 -83.0625 244° Southwest 243 280 14,000  Level Indianapolis Center
11:12PM 39.5503 -83.1414 243° Southwest 243 280 14,000 -120 Level Indianapolis Center
11:13PM 39.5308 -83.1919 244° Southwest 250 288 13,900 -720 Descending Indianapolis Center
11:13PM 39.5178 -83.2311 247° West 257 296 13,300 -1,320 Descending Indianapolis Center
11:14PM 39.4836 -83.3269 245° Southwest 270 311 11,900 -1,320 Descending Indianapolis Center
11:15PM 39.4594 -83.4025 248° West 258 297 10,800 -960 Descending Indianapolis Center
11:16PM 39.4319 -83.4936 249° West 244 281 10,000 -420 Descending Indianapolis Center
11:18PM 39.4094 -83.5692 249° West 225 259 10,000  Level Indianapolis Center
11:19PM 39.3803 -83.6519 246° West 240 276 10,000  Level Indianapolis Center
11:20PM 39.3522 -83.7344 246° West 242 278 10,000  Level Indianapolis Center
11:21PM 39.3342 -83.8164 254° West 240 276 10,000  Level Indianapolis Center
11:22PM 39.3417 -83.9056 276° West 246 283 10,000  Level Indianapolis Center
11:23PM 39.3361 -83.9919 265° West 242 278 10,000  Level Indianapolis Center
11:24PM 39.3342 -84.0817 268° West 246 283 10,000  Level Indianapolis Center
11:25PM 39.3344 -84.1728 270° West 250 288 10,000 -600 Level Indianapolis Center
11:26PM 39.3250 -84.2594 262° West 252 290 8,900 -1,260 Descending Indianapolis Center
11:27PM 39.2672 -84.2306 159° South 251 289 7,500 -1,620 Descending Indianapolis Center
11:28PM 39.2231 -84.1658 131° Southeast 241 277 5,600 -1,260 Descending Indianapolis Center
11:29PM 39.1739 -84.1281 149° Southeast 217 250 5,000 -360 Descending Indianapolis Center
11:30PM 39.1106 -84.1283 180° South 235 270 4,900  Descending Indianapolis Center
11:31PM 39.0703 -84.1956 232° Southwest 238 274 5,000 -60 Climbing Indianapolis Center
11:32PM 39.0461 -84.2789 250° West 245 282 4,800 -300 Descending Indianapolis Center
11:33PM 39.0458 -84.3678 270° West 222 255 4,500 -480 Descending Indianapolis Center
11:34PM 39.0458 -84.4422 270° West 215 247 3,900 -600 Descending Indianapolis Center
11:35PM 39.0464 -84.4975 271° West 202 232 3,300 -780 Descending Indianapolis Center
11:37PM 39.0500 -84.6333 272° West 104 120 1,300 -900 Descending Cincinnati TRACON
11:39PM 39.0333 -84.6667 236° Southwest  Level FlightAware Approximate
11:46PM 39.0488 -84.6678 236° Southwest  Level Estimated